Terminal Aerodrome Forecast
Issued by NWS

Home | Current Version | Previous Version | Graphics & Text | Print | Product List | Glossary On
Versions: 1 2 3 4 5 6 7 8 9 10 11 12 13 14 15 16 17
207
FTUS43 KGRB 040520
TAFMTW
TAF
KMTW 040520Z 0406/0506 19004KT P6SM BKN035 OVC080
     FM041400 17005KT P6SM OVC020
      TEMPO 0415/0416 3SM -SN OVC012
     FM041600 17007KT 1 1/2SM -SN OVC008
      TEMPO 0419/0423 3/4SM -SN OVC004
     FM050200 21008KT 3SM -SN OVC012
     FM050400 24009KT P6SM SCT012 OVC020=

USA.gov is the U.S. government's official web portal to all federal, state and local government web resources and services.